Time;durP1;ratioP1;P1;durP2;ratioP2;P2;SDS_P1;SDS_P2;PMS_P1;PMS_P2;Temp;Humidity;BMP_temperature;BMP_pressure;BME280_temperature;BME280_humidity;BME280_pressure;Samples;Min_cycle;Max_cycle;Signal;HPM_P1;HPM_P2
2021/12/30 00:00:38;;;;;;;;;6.00;5.33;;;;;-146.25;100.00;57879.81;5076609;28;45263;-78
2021/12/30 00:03:05;;;;;;;;;5.33;5.33;;;;;-146.25;100.00;57879.81;5077255;27;45494;-78
2021/12/30 00:05:31;;;;;;;;;6.00;5.50;;;;;-146.25;100.00;57879.81;5077463;27;45363;-78
2021/12/30 00:07:56;;;;;;;;;5.00;5.00;;;;;-146.25;100.00;57879.81;5077764;27;45420;-78
2021/12/30 00:10:22;;;;;;;;;5.67;5.00;;;;;-146.25;100.00;57879.81;5077962;28;45362;-78
2021/12/30 00:12:50;;;;;;;;;6.25;5.75;;;;;-146.25;100.00;57879.81;5077447;28;45429;-77
2021/12/30 00:15:16;;;;;;;;;7.00;6.00;;;;;-146.25;100.00;57879.81;5077482;28;45381;-77
2021/12/30 00:17:42;;;;;;;;;5.50;5.25;;;;;-146.25;100.00;57879.81;5077637;27;45400;-77
2021/12/30 00:20:08;;;;;;;;;4.00;4.00;;;;;-146.25;100.00;57879.81;5078077;28;45605;-77
2021/12/30 00:22:35;;;;;;;;;4.00;4.00;;;;;-146.25;100.00;57879.81;5077256;27;47329;-77
2021/12/30 00:25:00;;;;;;;;;3.67;3.67;;;;;-146.25;100.00;57879.81;5077139;27;45595;-77
2021/12/30 00:27:26;;;;;;;;;5.00;4.00;;;;;-146.25;100.00;57879.81;5077360;27;45538;-77
2021/12/30 00:29:52;;;;;;;;;4.33;4.00;;;;;-146.25;100.00;57879.81;5077591;27;45424;-78
2021/12/30 00:32:17;;;;;;;;;5.00;4.00;;;;;-146.25;100.00;57879.81;5077377;27;45385;-77
2021/12/30 00:34:43;;;;;;;;;3.67;2.67;;;;;-146.25;100.00;57879.81;5077307;27;45476;-75
2021/12/30 00:37:10;;;;;;;;;5.00;4.00;;;;;-146.25;100.00;57879.81;5077664;27;45567;-78
2021/12/30 00:39:35;;;;;;;;;6.00;4.67;;;;;-146.25;100.00;57879.81;5077375;27;45385;-78
2021/12/30 00:42:01;;;;;;;;;3.00;3.00;;;;;-146.25;100.00;57879.81;5077199;27;45416;-78
2021/12/30 00:44:26;;;;;;;;;4.00;3.00;;;;;-146.25;100.00;57879.81;5077140;27;45401;-78
2021/12/30 00:46:52;;;;;;;;;4.00;3.33;;;;;-146.25;100.00;57879.81;5077388;28;45214;-77
2021/12/30 00:49:18;;;;;;;;;3.33;3.33;;;;;-146.25;100.00;57879.81;5077507;27;45483;-78
2021/12/30 00:51:44;;;;;;;;;4.33;4.00;;;;;-146.25;100.00;57879.81;5077472;27;45883;-78
2021/12/30 00:54:09;;;;;;;;;4.00;4.00;;;;;-146.25;100.00;57879.81;5077211;28;45499;-78
2021/12/30 00:56:35;;;;;;;;;4.00;3.25;;;;;-146.25;100.00;57879.81;5077208;28;45367;-78
2021/12/30 00:59:01;;;;;;;;;4.00;3.25;;;;;-146.25;100.00;57879.81;5077220;28;45181;-78
2021/12/30 01:01:26;;;;;;;;;3.33;3.00;;;;;-146.25;100.00;57879.81;5076918;28;45453;-78
2021/12/30 01:03:52;;;;;;;;;3.33;3.00;;;;;-146.25;100.00;57879.81;5076862;28;45336;-77
2021/12/30 01:06:18;;;;;;;;;3.00;3.00;;;;;-146.25;100.00;57879.81;5076973;28;45579;-77
2021/12/30 01:08:44;;;;;;;;;4.33;4.00;;;;;-146.25;100.00;57879.81;5077295;27;45282;-77
2021/12/30 01:11:11;;;;;;;;;4.50;4.00;;;;;-146.25;100.00;57879.81;5076673;27;45525;-77
2021/12/30 01:13:40;;;;;;;;;5.25;5.00;;;;;-146.25;100.00;57879.81;5076667;27;45223;-76
2021/12/30 01:16:16;;;;;;;;;3.33;3.00;;;;;-146.25;100.00;57879.81;5078937;27;45464;-76
2021/12/30 01:21:31;;;;;;;;;8.75;7.00;;;;;-146.25;100.00;57879.81;5058185;27;45637;-77
2021/12/30 01:23:58;;;;;;;;;4.25;4.00;;;;;-146.25;100.00;57879.81;5080021;27;45504;-77
2021/12/30 01:26:24;;;;;;;;;5.00;5.00;;;;;-146.25;100.00;57879.81;5080193;28;45460;-77
2021/12/30 01:28:51;;;;;;;;;5.33;4.33;;;;;-146.25;100.00;57879.81;5078988;28;45576;-76
2021/12/30 01:31:18;;;;;;;;;3.00;3.00;;;;;-146.25;100.00;57879.81;5079905;27;46184;-77
2021/12/30 01:33:46;;;;;;;;;5.67;5.00;;;;;-146.25;100.00;57879.81;5079954;27;45552;-77
2021/12/30 01:36:12;;;;;;;;;4.00;4.00;;;;;-146.25;100.00;57879.81;5080181;27;45685;-76
2021/12/30 01:38:38;;;;;;;;;3.00;2.00;;;;;-146.25;100.00;57879.81;5080081;27;45488;-77
2021/12/30 01:41:05;;;;;;;;;4.00;3.00;;;;;-146.25;100.00;57879.81;5079757;27;45809;-76
2021/12/30 01:43:34;;;;;;;;;4.00;3.00;;;;;-146.25;100.00;57879.81;5079794;27;45600;-77
2021/12/30 01:46:00;;;;;;;;;5.00;4.67;;;;;-146.25;100.00;57879.81;5079857;27;45228;-76
2021/12/30 01:48:26;;;;;;;;;4.00;3.00;;;;;-146.25;100.00;57879.81;5079750;27;45505;-77
2021/12/30 01:50:52;;;;;;;;;3.33;3.33;;;;;-146.25;100.00;57879.81;5079392;27;46683;-77
2021/12/30 01:53:18;;;;;;;;;8.25;5.75;;;;;-146.25;100.00;57879.81;5079787;27;45279;-76
2021/12/30 01:55:44;;;;;;;;;7.00;4.50;;;;;-146.25;100.00;57879.81;5079862;28;45159;-77
2021/12/30 01:58:11;;;;;;;;;9.25;7.50;;;;;-146.25;100.00;57879.81;5079916;27;45404;-77
2021/12/30 02:00:39;;;;;;;;;10.25;5.00;;;;;-146.25;100.00;57879.81;5079349;28;46085;-77
2021/12/30 02:03:06;;;;;;;;;8.25;5.00;;;;;-146.25;100.00;57879.81;5079481;27;45460;-77
2021/12/30 02:05:33;;;;;;;;;4.50;4.50;;;;;-146.25;100.00;57879.81;5079461;27;45433;-77
2021/12/30 02:07:59;;;;;;;;;4.25;4.00;;;;;-146.25;100.00;57879.81;5079738;27;45356;-77
2021/12/30 02:10:25;;;;;;;;;4.25;3.00;;;;;-146.25;100.00;57879.81;5079432;27;46042;-77
2021/12/30 02:12:50;;;;;;;;;3.00;3.00;;;;;-146.25;100.00;57879.81;5079429;27;45559;-76
2021/12/30 02:15:17;;;;;;;;;4.00;3.33;;;;;-146.25;100.00;57879.81;5079582;28;45344;-77
2021/12/30 02:17:45;;;;;;;;;5.00;3.25;;;;;-146.25;100.00;57879.81;5079590;27;45485;-77
2021/12/30 02:20:47;;;;;;;;;5.50;4.25;;;;;-146.25;100.00;57879.81;5079119;27;46285;-77
2021/12/30 02:23:25;;;;;;;;;2.25;1.50;;;;;-146.25;100.00;57879.81;5079205;27;45702;-77
2021/12/30 02:25:59;;;;;;;;;27.25;26.75;;;;;-146.25;100.00;57879.81;5078967;27;45236;-77
2021/12/30 02:28:28;;;;;;;;;23.00;21.75;;;;;-146.25;100.00;57879.81;5079434;27;45473;-77
2021/12/30 02:30:56;;;;;;;;;18.25;15.00;;;;;-146.25;100.00;57879.81;5079029;27;46109;-77
2021/12/30 02:33:22;;;;;;;;;2.67;2.67;;;;;-146.25;100.00;57879.81;5078871;27;45469;-77
2021/12/30 02:35:48;;;;;;;;;4.25;4.25;;;;;-146.25;100.00;57879.81;5079238;27;45624;-77
2021/12/30 02:38:17;;;;;;;;;2.00;2.00;;;;;-146.25;100.00;57879.81;5079226;27;45414;-77
2021/12/30 02:40:46;;;;;;;;;4.00;3.00;;;;;-146.25;100.00;57879.81;5078930;28;46158;-77
2021/12/30 02:43:15;;;;;;;;;3.00;3.00;;;;;-146.25;100.00;57879.81;5078796;27;45412;-77
2021/12/30 02:45:41;;;;;;;;;3.75;3.75;;;;;-146.25;100.00;57879.81;5094855;27;45441;-77
2021/12/30 02:48:15;;;;;;;;;3.50;3.00;;;;;-146.25;100.00;57879.81;5079116;27;45319;-77
2021/12/30 02:50:41;;;;;;;;;4.00;3.50;;;;;-146.25;100.00;57879.81;5078620;27;45472;-77
2021/12/30 02:53:07;;;;;;;;;5.00;3.33;;;;;-146.25;100.00;57879.81;5078813;27;45238;-77
2021/12/30 02:55:33;;;;;;;;;9.00;9.00;;;;;-146.25;100.00;57879.81;5078676;28;45318;-77
2021/12/30 02:57:58;;;;;;;;;13.00;12.00;;;;;-146.25;100.00;57879.81;5078975;28;45266;-77
2021/12/30 03:00:24;;;;;;;;;13.50;13.00;;;;;-146.25;100.00;57879.81;5078578;28;46145;-77
2021/12/30 03:02:49;;;;;;;;;9.50;8.50;;;;;-146.25;100.00;57879.81;5078777;28;45463;-77
2021/12/30 03:05:18;;;;;;;;;7.25;7.25;;;;;-146.25;100.00;57879.81;5078554;27;45413;-77
2021/12/30 03:07:44;;;;;;;;;7.75;5.25;;;;;-146.25;100.00;57879.81;5078798;27;45418;-77
2021/12/30 03:10:16;;;;;;;;;4.67;3.33;;;;;-146.25;100.00;57879.81;5078432;27;45355;-77
2021/12/30 03:12:42;;;;;;;;;6.00;5.25;;;;;-146.25;100.00;57879.81;5078581;27;45488;-77
2021/12/30 03:15:11;;;;;;;;;12.25;11.00;;;;;-146.25;100.00;57879.81;5078442;28;45487;-76
2021/12/30 03:17:40;;;;;;;;;10.25;9.00;;;;;-146.25;100.00;57879.81;5078652;27;45487;-77
2021/12/30 03:20:09;;;;;;;;;9.00;8.00;;;;;-146.25;100.00;57879.81;5078118;27;46203;-77
2021/12/30 03:22:39;;;;;;;;;8.25;8.25;;;;;-146.25;100.00;57879.81;5078191;28;45298;-77
2021/12/30 03:25:10;;;;;;;;;6.25;6.00;;;;;-146.25;100.00;57879.81;5078185;27;45520;-77
2021/12/30 03:27:36;;;;;;;;;9.00;6.25;;;;;-146.25;100.00;57879.81;5078440;27;45483;-77
2021/12/30 03:30:05;;;;;;;;;5.75;4.50;;;;;-146.25;100.00;57879.81;5078104;27;45857;-77
2021/12/30 03:32:31;;;;;;;;;6.00;5.25;;;;;-146.25;100.00;57879.81;5077894;27;45398;-77
2021/12/30 03:34:56;;;;;;;;;5.50;5.00;;;;;-146.25;100.00;57879.81;5077929;28;45346;-76
2021/12/30 03:37:22;;;;;;;;;5.75;5.00;;;;;-146.25;100.00;57879.81;5078286;28;45247;-77
2021/12/30 03:39:48;;;;;;;;;3.00;3.00;;;;;-146.25;100.00;57879.81;5077780;28;46161;-78
2021/12/30 03:42:15;;;;;;;;;8.25;8.00;;;;;-146.25;100.00;57879.81;5078042;27;45344;-77
2021/12/30 03:44:40;;;;;;;;;5.75;5.75;;;;;-146.25;100.00;57879.81;5078094;27;45352;-78
2021/12/30 03:47:07;;;;;;;;;3.67;3.67;;;;;-146.25;100.00;57879.81;5078108;27;45246;-78
2021/12/30 03:49:33;;;;;;;;;5.25;5.00;;;;;-146.25;100.00;57879.81;5077927;27;45314;-77
2021/12/30 03:51:59;;;;;;;;;4.33;4.33;;;;;-146.25;100.00;57879.81;5077818;28;45287;-78
2021/12/30 03:54:24;;;;;;;;;7.75;6.00;;;;;-146.25;100.00;57879.81;5078200;28;45500;-75
2021/12/30 03:56:50;;;;;;;;;10.00;10.00;;;;;-146.25;100.00;57879.81;5078422;27;45460;-77
2021/12/30 03:59:15;;;;;;;;;20.50;20.50;;;;;-146.25;100.00;57879.81;5077783;28;45455;-78
2021/12/30 04:01:41;;;;;;;;;8.50;8.50;;;;;-146.25;100.00;57879.81;5077552;27;45433;-78
2021/12/30 04:04:07;;;;;;;;;8.75;7.75;;;;;-146.25;100.00;57879.81;5077846;28;45338;-77
2021/12/30 04:06:33;;;;;;;;;11.75;11.00;;;;;-146.25;100.00;57879.81;5077917;27;45411;-78
2021/12/30 04:08:59;;;;;;;;;19.25;16.50;;;;;-146.25;100.00;57879.81;5077401;28;45421;-78
2021/12/30 04:11:28;;;;;;;;;14.00;12.50;;;;;-146.25;100.00;57879.81;5077800;27;45440;-77
2021/12/30 04:13:54;;;;;;;;;12.00;11.00;;;;;-146.25;100.00;57879.81;5077919;27;45448;-78
2021/12/30 04:16:20;;;;;;;;;11.25;10.75;;;;;-146.25;100.00;57879.81;5077618;27;45325;-78
2021/12/30 04:18:48;;;;;;;;;14.75;11.00;;;;;-146.25;100.00;57879.81;5077470;28;46073;-78
2021/12/30 04:21:16;;;;;;;;;5.25;5.25;;;;;-146.25;100.00;57879.81;5077400;27;45528;-78
2021/12/30 04:23:43;;;;;;;;;6.25;6.25;;;;;-146.25;100.00;57879.81;5077600;28;45311;-78
2021/12/30 04:26:08;;;;;;;;;5.00;5.00;;;;;-146.25;100.00;57879.81;5077686;27;45540;-77
2021/12/30 04:28:34;;;;;;;;;5.00;4.75;;;;;-146.25;100.00;57879.81;5076970;28;46015;-77
2021/12/30 04:31:00;;;;;;;;;7.00;5.00;;;;;-146.25;100.00;57879.81;5076946;28;45420;-77
2021/12/30 04:33:25;;;;;;;;;4.00;4.00;;;;;-146.25;100.00;57879.81;5077599;28;45511;-77
2021/12/30 04:35:56;;;;;;;;;5.00;5.00;;;;;-146.25;100.00;57879.81;5077409;28;45606;-78
2021/12/30 04:38:24;;;;;;;;;4.75;3.75;;;;;-146.25;100.00;57879.81;5077220;28;45713;-78
2021/12/30 04:40:51;;;;;;;;;9.00;8.75;;;;;-146.25;100.00;57879.81;5077111;27;45276;-77
2021/12/30 04:43:17;;;;;;;;;2.50;2.00;;;;;-146.25;100.00;57879.81;5077142;27;45409;-77
2021/12/30 04:45:43;;;;;;;;;5.50;4.00;;;;;-146.25;100.00;57879.81;5077379;28;45549;-77
2021/12/30 04:48:10;;;;;;;;;3.50;3.50;;;;;-146.25;100.00;57879.81;5077124;27;45619;-78
2021/12/30 04:50:36;;;;;;;;;2.67;2.33;;;;;-146.25;100.00;57879.81;5078589;27;45532;-77
2021/12/30 04:53:02;;;;;;;;;5.00;3.75;;;;;-146.25;100.00;57879.81;5080884;27;45544;-78
2021/12/30 04:55:28;;;;;;;;;3.00;3.00;;;;;-146.25;100.00;57879.81;5081235;27;45805;-76
2021/12/30 04:57:53;;;;;;;;;3.00;3.00;;;;;-146.25;100.00;57879.81;5080605;28;45870;-77
2021/12/30 05:00:19;;;;;;;;;9.50;8.25;;;;;-146.25;100.00;57879.81;5080487;28;45464;-77
2021/12/30 05:05:29;;;;;;;;;9.50;8.00;;;;;-146.25;100.00;57879.81;5080953;28;45394;-77
2021/12/30 05:07:55;;;;;;;;;7.50;7.00;;;;;-146.25;100.00;57879.81;5080551;27;45349;-77
2021/12/30 05:10:21;;;;;;;;;6.75;5.00;;;;;-146.25;100.00;57879.81;5080277;28;45444;-77
2021/12/30 05:12:46;;;;;;;;;4.00;4.00;;;;;-146.25;100.00;57879.81;5080494;27;45494;-78
2021/12/30 05:15:12;;;;;;;;;5.00;5.00;;;;;-146.25;100.00;57879.81;5080687;28;45552;-78
2021/12/30 05:17:39;;;;;;;;;2.33;2.00;;;;;-146.25;100.00;57879.81;5080179;27;45665;-78
2021/12/30 05:20:05;;;;;;;;;3.50;3.00;;;;;-146.25;100.00;57879.81;5079996;28;45384;-77
2021/12/30 05:22:31;;;;;;;;;4.00;3.25;;;;;-146.25;100.00;57879.81;5080236;27;45500;-77
2021/12/30 05:24:56;;;;;;;;;4.25;4.00;;;;;-146.25;100.00;57879.81;5080615;28;45267;-77
2021/12/30 05:27:22;;;;;;;;;3.75;3.75;;;;;-146.25;100.00;57879.81;5080163;28;45487;-77
2021/12/30 05:29:47;;;;;;;;;5.50;4.75;;;;;-146.25;100.00;57879.81;5080195;28;45346;-78
2021/12/30 05:32:13;;;;;;;;;6.50;5.00;;;;;-146.25;100.00;57879.81;5080190;28;45261;-77
2021/12/30 05:34:39;;;;;;;;;5.00;5.00;;;;;-146.25;100.00;57879.81;5095966;27;45450;-77
2021/12/30 05:37:05;;;;;;;;;4.00;3.00;;;;;-146.25;100.00;57879.81;5080136;28;46302;-77
2021/12/30 05:39:31;;;;;;;;;3.50;3.25;;;;;-146.25;100.00;57879.81;5080227;28;45425;-77
2021/12/30 05:41:57;;;;;;;;;5.00;3.00;;;;;-146.25;100.00;57879.81;5080427;27;45565;-78
2021/12/30 05:44:22;;;;;;;;;4.25;2.25;;;;;-146.25;100.00;57879.81;5080178;27;45610;-77
2021/12/30 05:46:48;;;;;;;;;3.00;3.00;;;;;-146.25;100.00;57879.81;5079811;28;45464;-78
2021/12/30 05:49:13;;;;;;;;;2.00;2.00;;;;;-146.25;100.00;57879.81;5079952;28;45437;-77
2021/12/30 05:51:41;;;;;;;;;2.00;2.00;;;;;-146.25;100.00;57879.81;5079924;28;45481;-78
2021/12/30 05:54:07;;;;;;;;;2.00;2.00;;;;;-146.25;100.00;57879.81;5079798;27;45573;-77
2021/12/30 05:56:33;;;;;;;;;2.00;2.00;;;;;-146.25;100.00;57879.81;5079371;27;45483;-77
2021/12/30 05:58:58;;;;;;;;;2.25;2.25;;;;;-146.25;100.00;57879.81;5079883;27;45616;-78
2021/12/30 06:01:24;;;;;;;;;3.67;3.00;;;;;-146.25;100.00;57879.81;5079129;28;45246;-77
2021/12/30 06:03:50;;;;;;;;;2.00;2.00;;;;;-146.25;100.00;57879.81;5079792;28;45483;-77
2021/12/30 06:06:15;;;;;;;;;3.25;3.00;;;;;-146.25;100.00;57879.81;5078082;28;47874;-78
2021/12/30 06:08:41;;;;;;;;;2.33;2.33;;;;;-146.25;100.00;57879.81;5079195;28;45447;-77
2021/12/30 06:11:06;;;;;;;;;2.75;2.75;;;;;-146.25;100.00;57879.81;5079393;28;45425;-77
2021/12/30 06:13:32;;;;;;;;;4.00;3.00;;;;;-146.25;100.00;57879.81;5079982;28;45349;-78
2021/12/30 06:15:58;;;;;;;;;8.00;6.25;;;;;-146.25;100.00;57879.81;5079557;28;45442;-77
2021/12/30 06:18:23;;;;;;;;;7.00;5.75;;;;;-146.25;100.00;57879.81;5079386;28;45723;-77
2021/12/30 06:20:49;;;;;;;;;7.50;6.75;;;;;-146.25;100.00;57879.81;5079675;28;45211;-78
2021/12/30 06:23:14;;;;;;;;;4.00;2.50;;;;;-146.25;100.00;57879.81;5079614;28;45341;-77
2021/12/30 06:25:40;;;;;;;;;5.00;4.00;;;;;-146.25;100.00;57879.81;5079160;28;45970;-77
2021/12/30 06:28:05;;;;;;;;;5.00;4.00;;;;;-146.25;100.00;57879.81;5079133;28;45464;-77
2021/12/30 06:30:31;;;;;;;;;3.00;3.00;;;;;-146.25;100.00;57879.81;5079485;28;45472;-77
2021/12/30 06:32:56;;;;;;;;;3.00;2.00;;;;;-146.25;100.00;57879.81;5079273;28;45162;-77
2021/12/30 06:35:22;;;;;;;;;3.00;2.50;;;;;-146.25;100.00;57879.81;5078880;27;46531;-77
2021/12/30 06:37:48;;;;;;;;;2.00;2.00;;;;;-146.25;100.00;57879.81;5078817;27;45923;-77
2021/12/30 06:40:15;;;;;;;;;2.00;2.00;;;;;-146.25;100.00;57879.81;5079086;27;45312;-78
2021/12/30 06:42:42;;;;;;;;;2.00;2.00;;;;;-146.25;100.00;57879.81;5079185;27;45424;-77
2021/12/30 06:45:09;;;;;;;;;3.25;3.00;;;;;-146.25;100.00;57879.81;5078642;27;45566;-77
2021/12/30 06:47:35;;;;;;;;;3.50;3.00;;;;;-146.25;100.00;57879.81;5080131;27;45502;-76
2021/12/30 06:50:02;;;;;;;;;4.00;4.00;;;;;-146.25;100.00;57879.81;5079156;28;45461;-77
2021/12/30 06:52:29;;;;;;;;;3.50;3.50;;;;;-146.25;100.00;57879.81;5078988;28;45423;-77
2021/12/30 06:54:54;;;;;;;;;4.00;3.00;;;;;-146.25;100.00;57879.81;5078742;28;46202;-76
2021/12/30 06:57:20;;;;;;;;;4.00;3.75;;;;;-146.25;100.00;57879.81;5078701;28;45471;-76
2021/12/30 06:59:46;;;;;;;;;4.25;4.00;;;;;-146.25;100.00;57879.81;5078709;28;45382;-77
2021/12/30 07:02:13;;;;;;;;;2.00;2.00;;;;;-146.25;100.00;57879.81;5078917;27;45480;-77
2021/12/30 07:04:38;;;;;;;;;3.75;3.00;;;;;-146.25;100.00;57879.81;5078595;28;45495;-77
2021/12/30 07:07:04;;;;;;;;;3.25;3.25;;;;;-146.25;100.00;57879.81;5078685;28;45551;-77
2021/12/30 07:09:30;;;;;;;;;3.50;3.00;;;;;-146.25;100.00;57879.81;5078773;28;45270;-77
2021/12/30 07:11:56;;;;;;;;;3.50;3.00;;;;;-146.25;100.00;57879.81;5078911;28;45433;-77
2021/12/30 07:14:22;;;;;;;;;3.00;3.00;;;;;-146.25;100.00;57879.81;5077238;27;45515;-77
2021/12/30 07:16:48;;;;;;;;;3.25;3.25;;;;;-146.25;100.00;57879.81;5078491;28;45554;-77
2021/12/30 07:19:14;;;;;;;;;2.00;2.00;;;;;-146.25;100.00;57879.81;5078425;28;45442;-77
2021/12/30 07:21:40;;;;;;;;;3.00;3.00;;;;;-146.25;100.00;57879.81;5078471;28;45337;-77
2021/12/30 07:24:06;;;;;;;;;5.50;5.00;;;;;-146.25;100.00;57879.81;5078385;27;45316;-77
2021/12/30 07:26:32;;;;;;;;;4.00;3.00;;;;;-146.25;100.00;57879.81;5078469;28;46185;-77
2021/12/30 07:28:57;;;;;;;;;3.00;2.50;;;;;-146.25;100.00;57879.81;5078206;28;45487;-77
2021/12/30 07:31:23;;;;;;;;;3.00;3.00;;;;;-146.25;100.00;57879.81;5078587;27;45538;-77
2021/12/30 07:33:48;;;;;;;;;3.00;3.00;;;;;-146.25;100.00;57879.81;5077942;27;46186;-77
2021/12/30 07:36:14;;;;;;;;;3.75;3.25;;;;;-146.25;100.00;57879.81;5077971;28;45417;-77
2021/12/30 07:38:41;;;;;;;;;3.00;3.00;;;;;-146.25;100.00;57879.81;5078466;28;45301;-76
2021/12/30 07:41:06;;;;;;;;;3.00;3.00;;;;;-146.25;100.00;57879.81;5078622;28;45502;-77
2021/12/30 07:43:33;;;;;;;;;3.25;3.00;;;;;-146.25;100.00;57879.81;5077787;28;45504;-77
2021/12/30 07:45:59;;;;;;;;;4.00;3.25;;;;;-146.25;100.00;57879.81;5077970;28;45258;-77
2021/12/30 07:48:25;;;;;;;;;5.00;5.00;;;;;-146.25;100.00;57879.81;5078025;28;45420;-77
2021/12/30 07:50:51;;;;;;;;;3.00;2.00;;;;;-146.25;100.00;57879.81;5078803;27;45334;-77
2021/12/30 07:53:17;;;;;;;;;4.00;4.00;;;;;-146.25;100.00;57879.81;5094314;27;46879;-77
2021/12/30 07:55:42;;;;;;;;;3.00;3.00;;;;;-146.25;100.00;57879.81;5078687;27;45275;-77
2021/12/30 07:58:08;;;;;;;;;18.25;18.25;;;;;-146.25;100.00;57879.81;5079482;28;45545;-76
2021/12/30 08:00:34;;;;;;;;;11.50;10.00;;;;;-146.25;100.00;57879.81;5080541;28;45297;-77
2021/12/30 08:03:00;;;;;;;;;5.00;5.00;;;;;-146.25;100.00;57879.81;5094365;27;45523;-77
2021/12/30 08:05:27;;;;;;;;;5.25;5.25;;;;;-146.25;100.00;57879.81;5079271;27;45396;-78
2021/12/30 08:07:53;;;;;;;;;5.00;5.00;;;;;-146.25;100.00;57879.81;5079475;28;45255;-78
2021/12/30 08:10:20;;;;;;;;;4.75;4.00;;;;;-146.25;100.00;57879.81;5079828;27;45705;-78
2021/12/30 08:12:47;;;;;;;;;5.00;4.00;;;;;-146.25;100.00;57879.81;5078163;27;46036;-77
2021/12/30 08:15:15;;;;;;;;;3.00;2.00;;;;;-146.25;100.00;57879.81;5078666;27;45333;-77
2021/12/30 08:17:43;;;;;;;;;4.75;4.50;;;;;-146.25;100.00;57879.81;5078101;27;45540;-77
2021/12/30 08:20:10;;;;;;;;;3.75;3.50;;;;;-146.25;100.00;57879.81;5079590;27;45473;-78
2021/12/30 08:22:36;;;;;;;;;4.00;4.00;;;;;-146.25;100.00;57879.81;5077669;27;45349;-78
2021/12/30 08:25:04;;;;;;;;;3.25;3.00;;;;;-146.25;100.00;57879.81;5078040;27;45310;-76
2021/12/30 08:27:30;;;;;;;;;2.25;2.00;;;;;-146.25;100.00;57879.81;5077768;27;45423;-76
2021/12/30 08:29:55;;;;;;;;;4.50;2.00;;;;;-146.25;100.00;57879.81;5078405;27;45270;-77
2021/12/30 08:32:21;;;;;;;;;3.25;3.25;;;;;-146.25;100.00;57879.81;5077856;28;45412;-76
2021/12/30 08:34:47;;;;;;;;;4.00;4.00;;;;;-146.25;100.00;57879.81;5077868;28;45386;-76
2021/12/30 08:37:13;;;;;;;;;3.00;3.00;;;;;-146.25;100.00;57879.81;5078168;27;45503;-76
2021/12/30 08:39:40;;;;;;;;;3.25;3.00;;;;;-146.25;100.00;57879.81;5078134;27;45232;-76
2021/12/30 08:42:25;;;;;;;;;3.00;3.00;;;;;-146.25;100.00;57879.81;5075757;28;45467;-77
2021/12/30 08:44:51;;;;;;;;;4.25;4.00;;;;;-146.25;100.00;57879.81;5077287;28;45344;-76
2021/12/30 08:47:17;;;;;;;;;11.50;10.75;;;;;-146.25;100.00;57879.81;5077267;27;45495;-76
2021/12/30 08:49:47;;;;;;;;;11.50;11.00;;;;;-146.25;100.00;57879.81;5092971;27;45502;-75
2021/12/30 08:52:15;;;;;;;;;11.00;9.00;;;;;-146.25;100.00;57879.81;5076784;27;46311;-76
2021/12/30 08:54:41;;;;;;;;;10.50;9.75;;;;;-146.25;100.00;57879.81;5076907;27;45286;-76
2021/12/30 08:57:07;;;;;;;;;5.25;4.25;;;;;-146.25;100.00;57879.81;5076935;28;45495;-77
2021/12/30 08:59:35;;;;;;;;;5.75;5.75;;;;;-146.25;100.00;57879.81;5076863;27;45237;-77
2021/12/30 09:02:01;;;;;;;;;6.00;6.00;;;;;-146.25;100.00;57879.81;5076922;27;46122;-77
2021/12/30 09:04:26;;;;;;;;;9.25;9.00;;;;;-146.25;100.00;57879.81;5076660;28;45430;-77
2021/12/30 09:06:53;;;;;;;;;4.50;4.50;;;;;-146.25;100.00;57879.81;5077106;28;45338;-78
2021/12/30 09:09:18;;;;;;;;;5.33;5.33;;;;;-146.25;100.00;57879.81;5075733;28;45247;-76
2021/12/30 09:11:44;;;;;;;;;5.00;5.00;;;;;-146.25;100.00;57879.81;5077155;28;45237;-75
2021/12/30 09:14:13;;;;;;;;;7.00;7.00;;;;;-146.25;100.00;57879.81;5079090;28;45470;-77
2021/12/30 09:16:40;;;;;;;;;7.67;7.67;;;;;-146.25;100.00;57879.81;5078744;28;45559;-76
2021/12/30 09:19:05;;;;;;;;;11.25;10.00;;;;;-146.25;100.00;57879.81;5077973;27;45226;-77
2021/12/30 09:21:31;;;;;;;;;4.33;4.00;;;;;-146.25;100.00;57879.81;5079994;28;46424;-77
2021/12/30 09:23:56;;;;;;;;;5.67;5.00;;;;;-146.25;100.00;57879.81;5095655;27;45477;-77
2021/12/30 09:26:22;;;;;;;;;6.00;4.67;;;;;-146.25;100.00;57879.81;5078144;28;45245;-77
2021/12/30 09:28:49;;;;;;;;;4.00;3.00;;;;;-146.25;100.00;57879.81;5078711;28;45317;-77
2021/12/30 09:31:15;;;;;;;;;3.00;2.00;;;;;-146.25;100.00;57879.81;5075783;28;45326;-78
2021/12/30 09:33:42;;;;;;;;;2.67;2.67;;;;;-146.25;100.00;57879.81;5079908;28;45404;-77
2021/12/30 09:36:08;;;;;;;;;2.00;2.00;;;;;-146.25;100.00;57879.81;5080153;27;46216;-77
2021/12/30 09:38:34;;;;;;;;;1.67;1.67;;;;;-146.25;100.00;57879.81;5097019;27;45501;-77
2021/12/30 09:40:59;;;;;;;;;2.67;2.67;;;;;-146.25;100.00;57879.81;5095547;27;47633;-77
2021/12/30 09:43:25;;;;;;;;;2.00;2.00;;;;;-146.25;100.00;57879.81;5095584;27;45305;-78
2021/12/30 09:45:51;;;;;;;;;3.00;2.33;;;;;-146.25;100.00;57879.81;5080786;28;45500;-78
2021/12/30 09:48:17;;;;;;;;;1.00;1.00;;;;;-146.25;100.00;57879.81;5096066;27;45515;-78
2021/12/30 09:50:48;;;;;;;;;0.00;0.00;;;;;-146.25;100.00;57879.81;5080745;28;45582;-78
2021/12/30 09:53:17;;;;;;;;;1.67;1.33;;;;;-146.25;100.00;57879.81;5081136;27;45306;-78
2021/12/30 09:55:42;;;;;;;;;2.00;2.00;;;;;-146.25;100.00;57879.81;5079626;27;45354;-79
2021/12/30 09:58:08;;;;;;;;;2.00;2.00;;;;;-146.25;100.00;57879.81;5079825;27;45210;-78
2021/12/30 10:00:35;;;;;;;;;1.00;0.00;;;;;-146.25;100.00;57879.81;5096765;27;48228;-78
2021/12/30 10:03:01;;;;;;;;;1.00;1.00;;;;;-146.25;100.00;57879.81;5079982;27;45462;-78
2021/12/30 10:05:30;;;;;;;;;2.00;2.00;;;;;-146.25;100.00;57879.81;5079468;27;45300;-78
2021/12/30 10:08:21;;;;;;;;;4.33;4.33;;;;;-146.25;100.00;57879.81;5080751;27;45334;-78
2021/12/30 10:10:55;;;;;;;;;6.00;4.67;;;;;-146.25;100.00;57879.81;5080475;27;46318;-78
2021/12/30 10:13:30;;;;;;;;;4.00;4.00;;;;;-146.25;100.00;57879.81;5079403;28;45484;-79
2021/12/30 10:15:59;;;;;;;;;2.00;2.00;;;;;-146.25;100.00;57879.81;5079403;27;45563;-79
2021/12/30 10:18:40;;;;;;;;;3.00;2.00;;;;;-146.25;100.00;57879.81;5079486;27;45263;-79
2021/12/30 10:21:12;;;;;;;;;2.00;2.00;;;;;-146.25;100.00;57879.81;5081114;27;45510;-79
2021/12/30 10:23:44;;;;;;;;;3.33;3.33;;;;;-146.25;100.00;57879.81;5079679;28;45298;-79
2021/12/30 10:26:12;;;;;;;;;4.00;3.00;;;;;-146.25;100.00;57879.81;5081583;27;45376;-78
2021/12/30 10:28:40;;;;;;;;;4.33;4.00;;;;;-146.25;100.00;57879.81;5080322;27;45328;-79
2021/12/30 10:31:11;;;;;;;;;1.33;1.00;;;;;-146.25;100.00;57879.81;5080339;27;46047;-79
2021/12/30 10:33:49;;;;;;;;;3.33;3.00;;;;;-146.25;100.00;57879.81;5078581;27;45195;-78
2021/12/30 10:36:29;;;;;;;;;1.00;1.00;;;;;-146.25;100.00;57879.81;5079530;27;45524;-79
2021/12/30 10:39:14;;;;;;;;;0.00;0.00;;;;;-146.25;100.00;57879.81;5078894;27;45272;-79
2021/12/30 10:41:39;;;;;;;;;1.00;1.00;;;;;-146.25;100.00;57879.81;5079368;27;46119;-79
2021/12/30 10:44:06;;;;;;;;;3.00;3.00;;;;;-146.25;100.00;57879.81;5080889;28;45876;-79
2021/12/30 10:46:32;;;;;;;;;1.00;1.00;;;;;-146.25;100.00;57879.81;5080544;27;45396;-79
2021/12/30 10:49:04;;;;;;;;;1.33;1.00;;;;;-146.25;100.00;57879.81;5079984;28;45452;-78
2021/12/30 10:51:49;;;;;;;;;0.00;0.00;;;;;-146.25;100.00;57879.81;5080651;28;45243;-79
2021/12/30 10:54:25;;;;;;;;;1.00;1.00;;;;;-146.25;100.00;57879.81;5078936;27;45433;-79
2021/12/30 10:57:04;;;;;;;;;1.00;1.00;;;;;-146.25;100.00;57879.81;5078632;27;45240;-79
2021/12/30 10:59:38;;;;;;;;;2.00;2.00;;;;;-146.25;100.00;57879.81;5079515;27;45489;-79
2021/12/30 11:02:05;;;;;;;;;1.00;1.00;;;;;-146.25;100.00;57879.81;5078748;28;45554;-80
2021/12/30 11:04:48;;;;;;;;;1.00;1.00;;;;;-146.25;100.00;57879.81;5079215;27;45423;-78
2021/12/30 11:07:17;;;;;;;;;1.00;1.00;;;;;-146.25;100.00;57879.81;5078985;27;45167;-79
2021/12/30 11:09:58;;;;;;;;;2.00;2.00;;;;;-146.25;100.00;57879.81;5078894;28;45492;-79
2021/12/30 11:12:29;;;;;;;;;1.00;1.00;;;;;-146.25;100.00;57879.81;5077458;27;45372;-77